Time;durP1;ratioP1;P1;durP2;ratioP2;P2;SDS_P1;SDS_P2;PMS_P1;PMS_P2;Temp;Humidity;BMP_temperature;BMP_pressure;BME280_temperature;BME280_humidity;BME280_pressure;Samples;Min_cycle;Max_cycle;Signal;HPM_P1;HPM_P2
2022/11/23 00:02:13;;;;;;;13.85;2.42;;;;;;;;;;5072577;28;20021;-58
2022/11/23 00:04:39;;;;;;;8.68;2.08;;;;;;;;;;5069842;28;20028;-58
2022/11/23 00:07:04;;;;;;;8.77;2.15;;;;;;;;;;5070127;28;20045;-59
2022/11/23 00:09:29;;;;;;;14.95;2.78;;;;;;;;;;5079858;28;20028;-57
2022/11/23 00:11:54;;;;;;;10.48;2.25;;;;;;;;;;5074635;28;20070;-58
2022/11/23 00:14:19;;;;;;;18.23;2.75;;;;;;;;;;5078515;28;20274;-58
2022/11/23 00:16:45;;;;;;;9.73;1.95;;;;;;;;;;5079395;28;20036;-57
2022/11/23 00:19:10;;;;;;;9.02;2.30;;;;;;;;;;5081964;28;20103;-58
2022/11/23 00:21:35;;;;;;;10.15;2.33;;;;;;;;;;5078062;28;20032;-57
2022/11/23 00:24:00;;;;;;;11.95;2.63;;;;;;;;;;5089462;28;20440;-58
2022/11/23 00:26:26;;;;;;;11.52;2.60;;;;;;;;;;5078596;28;20028;-58
2022/11/23 00:28:51;;;;;;;12.27;2.40;;;;;;;;;;5079590;28;20025;-57
2022/11/23 00:31:16;;;;;;;13.48;2.08;;;;;;;;;;5083728;28;20021;-57
2022/11/23 00:33:42;;;;;;;10.73;2.10;;;;;;;;;;5076438;28;20477;-57
2022/11/23 00:36:09;;;;;;;13.95;2.75;;;;;;;;;;5080983;28;20020;-57
2022/11/23 00:38:34;;;;;;;14.77;2.40;;;;;;;;;;5084614;28;20062;-57
2022/11/23 00:41:00;;;;;;;9.32;1.70;;;;;;;;;;5072972;28;20020;-57
2022/11/23 00:43:26;;;;;;;10.20;2.13;;;;;;;;;;5082964;28;20047;-59
2022/11/23 00:46:01;;;;;;;11.38;2.22;;;;;;;;;;5083277;28;20522;-56
2022/11/23 00:48:30;;;;;;;12.18;2.60;;;;;;;;;;5086413;28;20059;-56
2022/11/23 00:50:55;;;;;;;9.20;2.60;;;;;;;;;;5083487;28;20024;-58
2022/11/23 00:53:20;;;;;;;9.40;2.40;;;;;;;;;;5083235;28;20032;-58
2022/11/23 00:55:52;;;;;;;13.48;2.40;;;;;;;;;;5090372;28;20046;-58
2022/11/23 00:58:17;;;;;;;12.40;2.85;;;;;;;;;;5084260;28;20956;-58
2022/11/23 01:00:43;;;;;;;12.25;2.50;;;;;;;;;;5097102;28;20057;-57
2022/11/23 01:03:08;;;;;;;11.57;2.08;;;;;;;;;;5083454;28;20104;-57
2022/11/23 01:05:36;;;;;;;15.50;2.42;;;;;;;;;;5078438;28;20337;-57
2022/11/23 01:08:02;;;;;;;9.63;3.03;;;;;;;;;;5075219;28;20301;-57
2022/11/23 01:10:28;;;;;;;13.95;2.90;;;;;;;;;;5085550;28;20030;-58
2022/11/23 01:12:53;;;;;;;10.18;2.50;;;;;;;;;;5083433;28;20035;-56
2022/11/23 01:15:19;;;;;;;15.07;2.47;;;;;;;;;;5085994;28;20032;-56
2022/11/23 01:17:44;;;;;;;13.60;3.00;;;;;;;;;;5088543;28;20022;-56
2022/11/23 01:20:09;;;;;;;9.13;2.30;;;;;;;;;;5079177;28;20019;-55
2022/11/23 01:22:34;;;;;;;16.63;2.78;;;;;;;;;;5079091;28;20449;-57
2022/11/23 01:25:00;;;;;;;13.32;2.63;;;;;;;;;;5089842;28;20118;-57
2022/11/23 01:27:25;;;;;;;10.07;2.50;;;;;;;;;;5074973;28;20046;-57
2022/11/23 01:29:50;;;;;;;12.77;2.65;;;;;;;;;;5087379;28;20061;-58
2022/11/23 01:32:15;;;;;;;14.45;2.53;;;;;;;;;;5077911;28;20092;-58
2022/11/23 01:34:41;;;;;;;12.73;2.40;;;;;;;;;;5079808;28;20354;-57
2022/11/23 01:37:06;;;;;;;12.55;2.33;;;;;;;;;;5093286;28;20080;-57
2022/11/23 01:39:31;;;;;;;10.48;2.50;;;;;;;;;;5080649;28;20035;-57
2022/11/23 01:41:56;;;;;;;9.98;2.10;;;;;;;;;;5081970;28;20015;-57
2022/11/23 01:44:23;;;;;;;9.48;2.33;;;;;;;;;;5083330;28;20031;-57
2022/11/23 01:46:48;;;;;;;15.52;3.30;;;;;;;;;;5079732;28;20043;-57
2022/11/23 01:49:13;;;;;;;18.13;3.03;;;;;;;;;;5076189;28;20027;-57
2022/11/23 01:51:39;;;;;;;13.77;2.42;;;;;;;;;;5087983;28;20039;-57
2022/11/23 01:54:06;;;;;;;14.18;2.42;;;;;;;;;;5084657;28;20041;-56
2022/11/23 01:56:33;;;;;;;13.48;2.80;;;;;;;;;;5106450;27;20441;-57
2022/11/23 01:58:58;;;;;;;16.23;2.67;;;;;;;;;;5091829;28;20115;-56
2022/11/23 02:01:24;;;;;;;11.45;2.42;;;;;;;;;;5076154;28;20099;-58
2022/11/23 02:03:49;;;;;;;13.75;2.65;;;;;;;;;;5081253;28;20035;-60
2022/11/23 02:06:15;;;;;;;10.88;2.15;;;;;;;;;;5108693;27;20052;-56
2022/11/23 02:08:41;;;;;;;11.98;2.15;;;;;;;;;;5073367;28;20404;-57
2022/11/23 02:11:06;;;;;;;9.95;2.50;;;;;;;;;;5087609;28;20018;-58
2022/11/23 02:13:31;;;;;;;13.90;2.60;;;;;;;;;;5077890;28;20047;-58
2022/11/23 02:15:56;;;;;;;14.75;2.55;;;;;;;;;;5078919;28;20026;-56
2022/11/23 02:18:22;;;;;;;14.23;2.60;;;;;;;;;;5077317;28;20048;-57
2022/11/23 02:20:47;;;;;;;13.80;3.25;;;;;;;;;;5072197;28;20047;-57
2022/11/23 02:23:33;;;;;;;11.65;2.45;;;;;;;;;;5083196;28;20031;-57
2022/11/23 02:26:01;;;;;;;5.82;2.80;;;;;;;;;;5076614;28;20123;-57
2022/11/23 02:28:43;;;;;;;12.75;2.30;;;;;;;;;;5091218;28;20029;-57
2022/11/23 02:31:08;;;;;;;7.65;2.47;;;;;;;;;;5093644;27;20564;-57
2022/11/23 02:33:36;;;;;;;12.32;3.22;;;;;;;;;;5081361;28;20078;-59
2022/11/23 02:36:01;;;;;;;11.98;2.92;;;;;;;;;;5082807;28;20016;-58
2022/11/23 02:38:30;;;;;;;10.30;2.58;;;;;;;;;;5079856;28;20339;-57
2022/11/23 02:40:55;;;;;;;10.73;2.20;;;;;;;;;;5089862;28;20114;-58
2022/11/23 02:43:21;;;;;;;11.65;2.40;;;;;;;;;;5079267;28;20685;-57
2022/11/23 02:45:53;;;;;;;6.75;2.10;;;;;;;;;;5085093;28;20027;-57
2022/11/23 02:48:19;;;;;;;7.25;1.92;;;;;;;;;;5081365;28;20671;-57
2022/11/23 02:50:44;;;;;;;14.63;2.90;;;;;;;;;;5080297;28;20035;-58
2022/11/23 02:53:09;;;;;;;10.77;2.13;;;;;;;;;;5083586;28;20042;-57
2022/11/23 02:55:34;;;;;;;8.60;2.38;;;;;;;;;;5079254;28;20070;-57
2022/11/23 02:58:00;;;;;;;14.40;2.30;;;;;;;;;;5077917;28;20025;-58
2022/11/23 03:00:25;;;;;;;11.60;2.38;;;;;;;;;;5082002;28;20016;-58
2022/11/23 03:02:50;;;;;;;13.32;2.40;;;;;;;;;;5081470;28;20392;-57
2022/11/23 03:05:16;;;;;;;12.48;2.65;;;;;;;;;;5077890;28;20544;-57
2022/11/23 03:07:41;;;;;;;10.57;2.55;;;;;;;;;;5085163;28;20169;-57
2022/11/23 03:10:07;;;;;;;16.67;2.70;;;;;;;;;;5076754;28;20027;-57
2022/11/23 03:12:32;;;;;;;11.98;2.30;;;;;;;;;;5082115;28;20013;-57
2022/11/23 03:14:57;;;;;;;14.60;2.80;;;;;;;;;;5082139;28;20012;-56
2022/11/23 03:17:22;;;;;;;8.98;2.25;;;;;;;;;;5081154;28;20028;-57
2022/11/23 03:19:48;;;;;;;12.57;2.17;;;;;;;;;;5088527;28;20463;-57
2022/11/23 03:22:13;;;;;;;12.55;2.35;;;;;;;;;;5079780;28;20020;-57
2022/11/23 03:24:38;;;;;;;8.52;2.25;;;;;;;;;;5079676;28;20031;-56
2022/11/23 03:27:03;;;;;;;15.48;2.67;;;;;;;;;;5077046;28;20049;-57
2022/11/23 03:29:28;;;;;;;10.00;2.00;;;;;;;;;;5075500;28;20047;-56
2022/11/23 03:31:54;;;;;;;16.88;2.50;;;;;;;;;;5080228;28;20526;-57
2022/11/23 03:34:19;;;;;;;13.32;2.60;;;;;;;;;;5072176;28;20024;-57
2022/11/23 03:36:44;;;;;;;13.15;2.33;;;;;;;;;;5073384;28;20520;-57
2022/11/23 03:39:09;;;;;;;16.42;2.80;;;;;;;;;;5077133;28;20382;-57
2022/11/23 03:41:35;;;;;;;15.40;2.45;;;;;;;;;;5074360;28;20149;-57
2022/11/23 03:44:00;;;;;;;16.42;2.88;;;;;;;;;;5080740;28;20032;-57
2022/11/23 03:46:25;;;;;;;10.02;2.65;;;;;;;;;;5080098;28;20036;-57
2022/11/23 03:48:50;;;;;;;13.10;2.67;;;;;;;;;;5084564;28;20016;-57
2022/11/23 03:51:16;;;;;;;12.38;2.40;;;;;;;;;;5084447;28;20017;-57
2022/11/23 03:53:41;;;;;;;13.20;2.40;;;;;;;;;;5075443;28;20032;-57
2022/11/23 03:56:06;;;;;;;12.27;2.70;;;;;;;;;;5078958;28;20020;-57
2022/11/23 03:58:31;;;;;;;11.18;2.25;;;;;;;;;;5088375;28;20208;-57
2022/11/23 04:00:56;;;;;;;11.57;2.67;;;;;;;;;;5093468;28;20020;-57
2022/11/23 04:03:22;;;;;;;11.20;2.45;;;;;;;;;;5067259;28;20021;-57
2022/11/23 04:05:47;;;;;;;9.80;2.40;;;;;;;;;;5086869;28;20165;-56
2022/11/23 04:08:12;;;;;;;9.98;2.25;;;;;;;;;;5073571;28;20044;-57
2022/11/23 04:10:37;;;;;;;15.43;3.00;;;;;;;;;;5081461;28;20035;-57
2022/11/23 04:13:03;;;;;;;18.95;3.00;;;;;;;;;;5082895;28;20012;-58
2022/11/23 04:15:28;;;;;;;10.85;2.45;;;;;;;;;;5073265;28;20050;-57
2022/11/23 04:17:54;;;;;;;14.65;2.58;;;;;;;;;;5086975;28;20410;-58
2022/11/23 04:20:19;;;;;;;15.80;2.83;;;;;;;;;;5085934;28;20474;-58
2022/11/23 04:22:44;;;;;;;14.90;2.53;;;;;;;;;;5080154;28;20078;-57
2022/11/23 04:25:09;;;;;;;12.05;2.60;;;;;;;;;;5086570;28;20086;-57
2022/11/23 04:27:35;;;;;;;14.07;2.60;;;;;;;;;;5086064;28;20032;-57
2022/11/23 04:30:00;;;;;;;20.40;3.35;;;;;;;;;;5090864;28;20024;-57
2022/11/23 04:32:25;;;;;;;12.75;2.70;;;;;;;;;;5083740;28;20020;-57
2022/11/23 04:34:50;;;;;;;15.48;2.30;;;;;;;;;;5073889;28;20435;-57
2022/11/23 04:37:15;;;;;;;15.70;2.80;;;;;;;;;;5087844;28;20493;-58
2022/11/23 04:39:41;;;;;;;15.75;2.50;;;;;;;;;;5082219;28;20035;-57
2022/11/23 04:42:06;;;;;;;12.70;2.67;;;;;;;;;;5078263;28;20428;-58
2022/11/23 04:44:31;;;;;;;18.63;2.83;;;;;;;;;;5078612;28;20680;-57
2022/11/23 04:46:56;;;;;;;15.32;2.78;;;;;;;;;;5080534;28;20020;-57
2022/11/23 04:49:22;;;;;;;11.02;2.42;;;;;;;;;;5077118;28;20086;-57
2022/11/23 04:51:47;;;;;;;15.70;2.60;;;;;;;;;;5076202;28;20037;-57
2022/11/23 04:54:12;;;;;;;13.00;2.58;;;;;;;;;;5088488;28;20078;-56
2022/11/23 04:56:37;;;;;;;13.57;2.47;;;;;;;;;;5084594;28;20481;-57
2022/11/23 04:59:03;;;;;;;11.73;2.38;;;;;;;;;;5080462;28;20027;-57
2022/11/23 05:01:28;;;;;;;15.27;2.72;;;;;;;;;;5076707;28;20024;-57
2022/11/23 05:03:53;;;;;;;20.05;3.58;;;;;;;;;;5079995;28;20034;-57
2022/11/23 05:06:18;;;;;;;13.63;2.47;;;;;;;;;;5076989;28;20445;-58
2022/11/23 05:08:43;;;;;;;5.97;2.42;;;;;;;;;;5079097;28;20024;-57
2022/11/23 05:11:09;;;;;;;11.75;2.53;;;;;;;;;;5081174;28;20056;-57
2022/11/23 05:13:34;;;;;;;11.75;3.00;;;;;;;;;;5084705;28;20111;-57
2022/11/23 05:15:59;;;;;;;24.98;3.00;;;;;;;;;;5076611;28;20093;-57
2022/11/23 05:18:24;;;;;;;12.82;2.45;;;;;;;;;;5084047;28;20020;-57
2022/11/23 05:20:50;;;;;;;14.57;3.08;;;;;;;;;;5083473;28;20386;-56
2022/11/23 05:23:15;;;;;;;14.60;3.17;;;;;;;;;;5080848;28;20009;-56
2022/11/23 05:25:40;;;;;;;12.80;3.00;;;;;;;;;;5085578;28;20519;-58
2022/11/23 05:28:05;;;;;;;22.67;3.20;;;;;;;;;;5088279;28;20016;-58
2022/11/23 05:30:31;;;;;;;8.43;2.33;;;;;;;;;;5089565;28;20020;-57
2022/11/23 05:33:02;;;;;;;12.70;3.10;;;;;;;;;;5078902;28;20070;-57
2022/11/23 05:35:28;;;;;;;19.67;4.72;;;;;;;;;;5078517;28;20047;-57
2022/11/23 05:37:53;;;;;;;18.10;4.10;;;;;;;;;;5088707;28;20078;-59
2022/11/23 05:40:18;;;;;;;13.18;3.47;;;;;;;;;;5084169;28;21414;-58
2022/11/23 05:42:43;;;;;;;13.48;2.72;;;;;;;;;;5093483;28;20019;-57
2022/11/23 05:45:09;;;;;;;14.95;2.75;;;;;;;;;;5084794;28;20074;-58
2022/11/23 05:47:34;;;;;;;14.05;3.13;;;;;;;;;;5082075;28;20017;-58
2022/11/23 05:49:59;;;;;;;9.48;2.28;;;;;;;;;;5077103;28;20513;-58
2022/11/23 05:52:25;;;;;;;11.98;2.72;;;;;;;;;;5090982;28;20043;-58
2022/11/23 05:54:50;;;;;;;11.60;2.50;;;;;;;;;;5081405;28;20099;-58
2022/11/23 05:57:16;;;;;;;10.43;2.55;;;;;;;;;;5075767;28;20024;-57
2022/11/23 05:59:41;;;;;;;12.30;2.58;;;;;;;;;;5088263;28;20389;-57
2022/11/23 06:02:07;;;;;;;8.45;2.40;;;;;;;;;;5086853;28;20016;-56
2022/11/23 06:04:32;;;;;;;12.05;2.80;;;;;;;;;;5086610;28;20020;-57
2022/11/23 06:06:59;;;;;;;14.82;2.80;;;;;;;;;;5076871;28;20051;-57
2022/11/23 06:09:25;;;;;;;15.50;3.00;;;;;;;;;;5085175;28;20024;-57
2022/11/23 06:11:50;;;;;;;14.50;2.95;;;;;;;;;;5079477;28;20020;-57
2022/11/23 06:14:16;;;;;;;11.88;2.80;;;;;;;;;;5085989;28;20179;-57
2022/11/23 06:16:41;;;;;;;14.63;2.75;;;;;;;;;;5083044;28;20035;-57
2022/11/23 06:19:06;;;;;;;14.10;2.75;;;;;;;;;;5079303;28;20040;-57
2022/11/23 06:21:32;;;;;;;13.23;2.55;;;;;;;;;;5087003;28;20435;-56
2022/11/23 06:23:57;;;;;;;7.10;2.25;;;;;;;;;;5087158;28;20016;-57
2022/11/23 06:26:22;;;;;;;9.95;2.55;;;;;;;;;;5081364;28;20039;-57
2022/11/23 06:28:48;;;;;;;6.60;2.63;;;;;;;;;;5081173;28;20372;-55
2022/11/23 06:31:13;;;;;;;6.63;2.45;;;;;;;;;;5079463;28;20024;-56
2022/11/23 06:33:38;;;;;;;9.50;2.50;;;;;;;;;;5084297;28;20020;-57
2022/11/23 06:36:04;;;;;;;8.40;2.17;;;;;;;;;;5077722;28;20016;-57
2022/11/23 06:38:29;;;;;;;10.93;2.10;;;;;;;;;;5088677;28;20705;-57
2022/11/23 06:41:00;;;;;;;17.40;3.72;;;;;;;;;;5092000;28;20039;-57
2022/11/23 06:43:26;;;;;;;11.15;4.60;;;;;;;;;;5075196;28;20111;-57
2022/11/23 06:45:51;;;;;;;13.82;3.08;;;;;;;;;;5074696;28;20585;-58
2022/11/23 06:48:16;;;;;;;15.18;3.08;;;;;;;;;;5076263;28;20013;-58
2022/11/23 06:50:41;;;;;;;12.73;2.83;;;;;;;;;;5078493;28;20020;-58
2022/11/23 06:53:09;;;;;;;14.00;4.07;;;;;;;;;;5080841;28;20031;-57
2022/11/23 06:55:35;;;;;;;14.88;4.80;;;;;;;;;;5084896;28;20024;-58
2022/11/23 06:58:00;;;;;;;13.88;3.33;;;;;;;;;;5083204;28;20022;-57
2022/11/23 07:00:25;;;;;;;14.65;4.50;;;;;;;;;;5085237;28;20374;-58
2022/11/23 07:02:51;;;;;;;15.38;3.78;;;;;;;;;;5075119;28;20015;-58
2022/11/23 07:05:17;;;;;;;12.77;3.97;;;;;;;;;;5081343;28;20086;-58
2022/11/23 07:07:42;;;;;;;14.57;3.67;;;;;;;;;;5081567;28;20326;-58
2022/11/23 07:10:07;;;;;;;9.15;3.55;;;;;;;;;;5085726;28;20030;-57
2022/11/23 07:12:32;;;;;;;11.32;3.08;;;;;;;;;;5080471;28;20238;-57
2022/11/23 07:14:58;;;;;;;10.55;3.25;;;;;;;;;;5078129;28;20019;-57
2022/11/23 07:17:23;;;;;;;7.90;3.17;;;;;;;;;;5087956;28;20021;-57
2022/11/23 07:19:48;;;;;;;10.95;3.60;;;;;;;;;;5079787;28;20027;-57
2022/11/23 07:22:14;;;;;;;11.48;3.85;;;;;;;;;;5085748;28;20016;-56
2022/11/23 07:24:39;;;;;;;12.80;3.40;;;;;;;;;;5089116;28;20021;-57
2022/11/23 07:27:04;;;;;;;10.38;3.20;;;;;;;;;;5079775;28;20503;-59
2022/11/23 07:29:29;;;;;;;8.57;3.28;;;;;;;;;;5085255;28;20470;-57
2022/11/23 07:31:55;;;;;;;15.05;4.40;;;;;;;;;;5070097;28;20024;-57
2022/11/23 07:34:20;;;;;;;9.70;3.53;;;;;;;;;;5074920;28;20048;-56
2022/11/23 07:36:45;;;;;;;7.25;3.17;;;;;;;;;;5085852;28;20047;-57
2022/11/23 07:39:10;;;;;;;10.32;3.10;;;;;;;;;;5082013;28;20052;-57
2022/11/23 07:41:35;;;;;;;13.35;3.67;;;;;;;;;;5074761;28;20471;-58
2022/11/23 07:44:01;;;;;;;10.57;4.50;;;;;;;;;;5082591;28;20480;-57
2022/11/23 07:46:26;;;;;;;13.38;5.03;;;;;;;;;;5095922;28;20464;-57
2022/11/23 07:48:53;;;;;;;20.98;4.63;;;;;;;;;;5075733;28;20031;-57
2022/11/23 07:51:18;;;;;;;19.70;4.10;;;;;;;;;;5072249;28;20020;-57
2022/11/23 07:53:44;;;;;;;11.63;4.10;;;;;;;;;;5078241;28;20495;-57
2022/11/23 07:56:09;;;;;;;9.15;3.75;;;;;;;;;;5120903;27;20486;-57
2022/11/23 07:58:34;;;;;;;14.85;4.57;;;;;;;;;;5079214;28;20024;-57
2022/11/23 08:01:00;;;;;;;14.02;4.32;;;;;;;;;;5082580;28;20047;-57
2022/11/23 08:03:25;;;;;;;16.95;4.60;;;;;;;;;;5073119;28;20405;-56
2022/11/23 08:05:50;;;;;;;15.82;4.38;;;;;;;;;;5077977;28;20410;-57
2022/11/23 08:08:15;;;;;;;16.08;4.07;;;;;;;;;;4835836;28;7153352;-56
2022/11/23 08:10:40;;;;;;;14.02;3.95;;;;;;;;;;5082763;28;20031;-56
2022/11/23 08:13:06;;;;;;;11.73;4.32;;;;;;;;;;5074454;28;20131;-59
2022/11/23 08:15:31;;;;;;;12.13;4.43;;;;;;;;;;5074161;28;20078;-56
2022/11/23 08:17:57;;;;;;;10.57;4.00;;;;;;;;;;5075972;28;20017;-58
2022/11/23 08:20:22;;;;;;;12.82;4.30;;;;;;;;;;5068373;28;20570;-56
2022/11/23 08:22:47;;;;;;;12.65;4.40;;;;;;;;;;5089019;28;20027;-56
2022/11/23 08:25:13;;;;;;;14.27;4.78;;;;;;;;;;5077608;28;20043;-56
2022/11/23 08:27:38;;;;;;;12.23;4.40;;;;;;;;;;5077898;28;20115;-57
2022/11/23 08:30:03;;;;;;;12.77;4.63;;;;;;;;;;5075830;28;20017;-57
2022/11/23 08:32:29;;;;;;;16.75;4.65;;;;;;;;;;5080649;28;20028;-56
2022/11/23 08:34:54;;;;;;;12.70;4.78;;;;;;;;;;5075151;28;20052;-58
2022/11/23 08:37:19;;;;;;;16.90;4.75;;;;;;;;;;5076692;28;20455;-57
2022/11/23 08:39:44;;;;;;;11.45;3.60;;;;;;;;;;5081313;28;20445;-57
2022/11/23 08:42:10;;;;;;;12.88;4.28;;;;;;;;;;5078167;28;20028;-57
2022/11/23 08:44:35;;;;;;;13.63;5.22;;;;;;;;;;5070617;28;20104;-57
2022/11/23 08:47:00;;;;;;;13.30;4.70;;;;;;;;;;5085151;28;20058;-57
2022/11/23 08:49:26;;;;;;;16.83;4.97;;;;;;;;;;5085189;28;20282;-57
2022/11/23 08:51:51;;;;;;;12.18;4.60;;;;;;;;;;5080196;28;20034;-57
2022/11/23 08:54:16;;;;;;;13.55;4.45;;;;;;;;;;5081924;28;20430;-57
2022/11/23 08:56:41;;;;;;;15.52;4.43;;;;;;;;;;5084324;28;20020;-57
2022/11/23 08:59:07;;;;;;;14.60;4.63;;;;;;;;;;5075285;28;20418;-57
2022/11/23 09:01:32;;;;;;;12.27;4.22;;;;;;;;;;5083365;28;20101;-57
2022/11/23 09:03:57;;;;;;;16.05;4.72;;;;;;;;;;5119614;27;20016;-57
2022/11/23 09:06:27;;;;;;;16.05;4.50;;;;;;;;;;5087785;28;20135;-58
2022/11/23 09:08:53;;;;;;;11.60;3.85;;;;;;;;;;5078374;28;20020;-58
2022/11/23 09:11:18;;;;;;;14.90;4.35;;;;;;;;;;5081090;28;20498;-56
2022/11/23 09:13:43;;;;;;;14.75;4.40;;;;;;;;;;5087427;28;20432;-57
2022/11/23 09:16:08;;;;;;;11.73;3.40;;;;;;;;;;5085387;28;20032;-57
2022/11/23 09:18:35;;;;;;;12.90;3.75;;;;;;;;;;5081205;28;20035;-57
2022/11/23 09:21:01;;;;;;;13.18;3.97;;;;;;;;;;5099399;28;20031;-57
2022/11/23 09:23:26;;;;;;;14.60;4.07;;;;;;;;;;5094000;28;20017;-57
2022/11/23 09:25:51;;;;;;;15.40;3.80;;;;;;;;;;5077518;28;20027;-57
2022/11/23 09:28:18;;;;;;;8.68;3.47;;;;;;;;;;5087965;28;20051;-57
2022/11/23 09:30:44;;;;;;;14.02;3.90;;;;;;;;;;5120416;27;20031;-57
2022/11/23 09:33:09;;;;;;;11.57;3.80;;;;;;;;;;5082905;28;20475;-57
2022/11/23 09:35:57;;;;;;;12.52;4.18;;;;;;;;;;5088407;28;20131;-57
2022/11/23 09:38:22;;;;;;;13.77;4.07;;;;;;;;;;5069595;28;20086;-58
2022/11/23 09:40:47;;;;;;;8.38;3.38;;;;;;;;;;5078749;28;20027;-58
2022/11/23 09:43:20;;;;;;;10.88;3.33;;;;;;;;;;5080829;28;20238;-57
2022/11/23 09:45:47;;;;;;;12.90;3.60;;;;;;;;;;5077774;28;20037;-58
2022/11/23 09:48:18;;;;;;;11.48;3.03;;;;;;;;;;5085723;28;20099;-57
2022/11/23 09:50:51;;;;;;;13.50;3.45;;;;;;;;;;5078706;28;20020;-58
2022/11/23 09:53:20;;;;;;;15.45;4.07;;;;;;;;;;5078239;28;20019;-57
2022/11/23 09:55:46;;;;;;;14.88;3.38;;;;;;;;;;5074711;28;20031;-58
2022/11/23 09:58:12;;;;;;;14.27;4.13;;;;;;;;;;5114600;27;20129;-57
2022/11/23 10:00:43;;;;;;;13.18;3.60;;;;;;;;;;5058225;28;20073;-57
2022/11/23 10:03:15;;;;;;;12.18;3.38;;;;;;;;;;5092323;27;20111;-57
2022/11/23 10:05:40;;;;;;;7.32;3.33;;;;;;;;;;5111704;27;20107;-57
2022/11/23 10:08:15;;;;;;;15.93;3.08;;;;;;;;;;5115882;27;20162;-57
2022/11/23 10:10:43;;;;;;;12.27;3.38;;;;;;;;;;5080969;28;20473;-56
2022/11/23 10:13:16;;;;;;;10.48;3.17;;;;;;;;;;5085789;28;20093;-58
2022/11/23 10:15:41;;;;;;;9.73;3.25;;;;;;;;;;5090178;28;20063;-58
2022/11/23 10:18:06;;;;;;;12.50;3.75;;;;;;;;;;5073536;28;20024;-57
2022/11/23 10:20:50;;;;;;;11.25;3.10;;;;;;;;;;5078643;28;20020;-57
2022/11/23 10:23:15;;;;;;;11.65;3.40;;;;;;;;;;5075440;28;20106;-57
2022/11/23 10:25:45;;;;;;;14.65;4.57;;;;;;;;;;5092310;28;20743;-57
2022/11/23 10:28:12;;;;;;;9.10;3.60;;;;;;;;;;5075059;28;20021;-57
2022/11/23 10:30:37;;;;;;;11.18;3.50;;;;;;;;;;5084615;28;20032;-57
2022/11/23 10:33:08;;;;;;;14.05;3.13;;;;;;;;;;5074086;28;20520;-57
2022/11/23 10:35:34;;;;;;;12.65;3.25;;;;;;;;;;5081667;28;20206;-58
2022/11/23 10:38:09;;;;;;;12.32;3.20;;;;;;;;;;5079636;28;20553;-57
2022/11/23 10:40:34;;;;;;;8.35;3.28;;;;;;;;;;5085638;28;20545;-57
2022/11/23 10:43:00;;;;;;;12.45;3.17;;;;;;;;;;5085324;28;20126;-57
2022/11/23 10:45:26;;;;;;;20.40;3.67;;;;;;;;;;5115397;27;20060;-56
2022/11/23 10:47:57;;;;;;;9.88;2.83;;;;;;;;;;5081111;28;20032;-56
2022/11/23 10:50:22;;;;;;;11.82;3.47;;;;;;;;;;5083409;28;20478;-57
2022/11/23 10:52:51;;;;;;;9.45;2.90;;;;;;;;;;5078735;28;20032;-56
2022/11/23 10:55:17;;;;;;;15.45;3.92;;;;;;;;;;5072075;28;20039;-58
2022/11/23 10:57:43;;;;;;;12.68;3.28;;;;;;;;;;5095163;27;20016;-57
2022/11/23 11:00:14;;;;;;;10.68;3.38;;;;;;;;;;5081564;28;20035;-56
2022/11/23 11:02:39;;;;;;;9.10;3.70;;;;;;;;;;5083056;28;20026;-57
2022/11/23 11:05:13;;;;;;;10.00;2.95;;;;;;;;;;5069000;28;20411;-57
2022/11/23 11:07:38;;;;;;;10.73;3.03;;;;;;;;;;5085430;28;20086;-57
2022/11/23 11:10:03;;;;;;;10.68;3.10;;;;;;;;;;5089822;28;20057;-56
2022/11/23 11:12:31;;;;;;;10.00;3.00;;;;;;;;;;5081410;28;20033;-57
2022/11/23 11:14:57;;;;;;;9.07;2.67;;;;;;;;;;5086911;28;20063;-56
2022/11/23 11:17:26;;;;;;;9.60;3.17;;;;;;;;;;5081265;28;20020;-58
2022/11/23 11:19:52;;;;;;;9.27;3.03;;;;;;;;;;5070783;28;20043;-58
2022/11/23 11:22:24;;;;;;;16.52;2.95;;;;;;;;;;5093692;28;20487;-57
2022/11/23 11:24:49;;;;;;;14.30;3.35;;;;;;;;;;5075480;28;20140;-58
2022/11/23 11:27:16;;;;;;;7.25;3.33;;;;;;;;;;5081990;28;20020;-57
2022/11/23 11:29:44;;;;;;;9.70;3.10;;;;;;;;;;5077462;28;20105;-58
2022/11/23 11:32:23;;;;;;;13.43;2.97;;;;;;;;;;5074598;28;20077;-57
2022/11/23 11:34:48;;;;;;;9.48;2.50;;;;;;;;;;5077136;28;20057;-56
2022/11/23 11:37:13;;;;;;;11.93;2.45;;;;;;;;;;5076241;28;20025;-56
2022/11/23 11:39:47;;;;;;;5.95;2.13;;;;;;;;;;5088131;28;20027;-57
2022/11/23 11:42:14;;;;;;;10.55;2.75;;;;;;;;;;5078382;28;20024;-57
2022/11/23 11:44:40;;;;;;;11.20;2.90;;;;;;;;;;5085822;28;20023;-57
2022/11/23 11:47:09;;;;;;;12.80;2.63;;;;;;;;;;5071506;28;20040;-56
2022/11/23 11:49:36;;;;;;;11.90;2.60;;;;;;;;;;5076105;28;20027;-56
2022/11/23 11:52:03;;;;;;;14.15;2.97;;;;;;;;;;5080185;28;20111;-56
2022/11/23 11:54:39;;;;;;;14.25;2.72;;;;;;;;;;5083959;28;20017;-56
2022/11/23 11:57:05;;;;;;;9.63;2.83;;;;;;;;;;5079380;28;20027;-56
2022/11/23 11:59:30;;;;;;;7.65;2.45;;;;;;;;;;5083647;28;20077;-55
2022/11/23 12:01:58;;;;;;;9.18;2.40;;;;;;;;;;5083181;28;20480;-56
2022/11/23 12:04:42;;;;;;;6.75;2.10;;;;;;;;;;5108721;27;20446;-55
2022/11/23 12:07:09;;;;;;;5.72;2.70;;;;;;;;;;5071367;28;20052;-55
2022/11/23 12:09:36;;;;;;;8.63;2.95;;;;;;;;;;5078810;28;20017;-55
2022/11/23 12:12:01;;;;;;;10.73;3.25;;;;;;;;;;5112052;27;20404;-58
2022/11/23 12:14:26;;;;;;;8.00;2.20;;;;;;;;;;5076682;28;20067;-57
2022/11/23 12:17:04;;;;;;;7.53;2.67;;;;;;;;;;5078131;28;20103;-57
2022/11/23 12:19:38;;;;;;;17.52;2.60;;;;;;;;;;5079922;28;20487;-57
2022/11/23 12:22:04;;;;;;;10.57;2.33;;;;;;;;;;5079024;28;20064;-57
2022/11/23 12:24:41;;;;;;;8.00;2.30;;;;;;;;;;5083821;28;20366;-57
2022/11/23 12:27:25;;;;;;;7.95;2.10;;;;;;;;;;5084079;28;20383;-57
2022/11/23 12:29:53;;;;;;;6.65;2.28;;;;;;;;;;5075219;28;20612;-57
2022/11/23 12:32:22;;;;;;;18.25;3.03;;;;;;;;;;5068671;28;20041;-58
2022/11/23 12:34:48;;;;;;;9.38;3.53;;;;;;;;;;5079333;28;20530;-58
2022/11/23 12:37:13;;;;;;;18.33;2.60;;;;;;;;;;5079546;28;20020;-57
2022/11/23 12:39:48;;;;;;;6.78;2.58;;;;;;;;;;5076064;28;20027;-57
2022/11/23 12:42:16;;;;;;;6.03;2.22;;;;;;;;;;5084288;28;20028;-57
2022/11/23 12:45:00;;;;;;;5.47;1.83;;;;;;;;;;5077179;28;20024;-57
2022/11/23 12:47:31;;;;;;;7.68;2.13;;;;;;;;;;5087919;28;20066;-57
2022/11/23 12:50:05;;;;;;;4.28;1.88;;;;;;;;;;5081179;28;20535;-56
2022/11/23 12:52:36;;;;;;;7.50;2.35;;;;;;;;;;5085054;28;20527;-57
2022/11/23 12:55:05;;;;;;;7.57;2.70;;;;;;;;;;5079179;28;20040;-57
2022/11/23 12:57:36;;;;;;;6.85;2.20;;;;;;;;;;5067559;28;20040;-57
2022/11/23 13:00:04;;;;;;;5.60;2.22;;;;;;;;;;5084433;28;20029;-57
2022/11/23 13:02:32;;;;;;;7.82;2.20;;;;;;;;;;5071741;28;20020;-58
2022/11/23 13:05:05;;;;;;;3.80;1.90;;;;;;;;;;5086113;28;20065;-56
2022/11/23 13:07:39;;;;;;;6.25;1.90;;;;;;;;;;5086333;28;20487;-57
2022/11/23 13:10:30;;;;;;;7.78;1.95;;;;;;;;;;5118123;27;20066;-57
2022/11/23 13:13:01;;;;;;;7.22;1.90;;;;;;;;;;5056958;28;20027;-56
2022/11/23 13:15:35;;;;;;;4.15;1.50;;;;;;;;;;5074391;28;20016;-58
2022/11/23 13:18:13;;;;;;;4.45;2.10;;;;;;;;;;5076972;28;20020;-56
2022/11/23 13:20:41;;;;;;;5.47;2.00;;;;;;;;;;5079054;28;20043;-56
2022/11/23 13:23:06;;;;;;;6.60;2.10;;;;;;;;;;5080444;28;20111;-57
2022/11/23 13:25:31;;;;;;;5.47;2.05;;;;;;;;;;5076527;28;20146;-55
2022/11/23 13:27:58;;;;;;;6.75;1.98;;;;;;;;;;5069728;28;20104;-57
2022/11/23 13:30:23;;;;;;;6.95;2.00;;;;;;;;;;5082465;28;20024;-56
2022/11/23 13:32:56;;;;;;;6.72;2.00;;;;;;;;;;5085443;28;20072;-55
2022/11/23 13:35:21;;;;;;;12.48;2.47;;;;;;;;;;5078099;28;20112;-56
2022/11/23 13:37:56;;;;;;;8.80;2.20;;;;;;;;;;5083683;28;20480;-56
2022/11/23 13:40:23;;;;;;;4.18;1.75;;;;;;;;;;5079098;28;20069;-57
2022/11/23 13:42:49;;;;;;;9.50;1.95;;;;;;;;;;5087736;28;20080;-58
2022/11/23 13:45:20;;;;;;;5.68;2.28;;;;;;;;;;5074342;28;20032;-56
2022/11/23 13:48:04;;;;;;;6.72;2.08;;;;;;;;;;5082445;28;20038;-55
2022/11/23 13:50:29;;;;;;;5.93;1.95;;;;;;;;;;5079342;28;20036;-56
2022/11/23 13:52:54;;;;;;;11.82;2.33;;;;;;;;;;5090525;28;20027;-56
2022/11/23 13:55:21;;;;;;;6.53;2.20;;;;;;;;;;5083388;28;20348;-57
2022/11/23 13:58:06;;;;;;;8.57;2.28;;;;;;;;;;5085241;28;20023;-58
2022/11/23 14:00:47;;;;;;;10.23;2.22;;;;;;;;;;5082069;28;20053;-58
2022/11/23 14:03:46;;;;;;;9.85;2.15;;;;;;;;;;5070859;28;20035;-59
2022/11/23 14:06:20;;;;;;;7.25;1.73;;;;;;;;;;5077655;28;20082;-56
2022/11/23 14:08:45;;;;;;;4.25;1.65;;;;;;;;;;5108196;27;20534;-56
2022/11/23 14:11:16;;;;;;;5.20;1.40;;;;;;;;;;5086816;28;20036;-55
2022/11/23 14:13:44;;;;;;;7.15;2.03;;;;;;;;;;5082153;28;20015;-55
2022/11/23 14:16:10;;;;;;;8.57;1.98;;;;;;;;;;5078457;28;20554;-56
2022/11/23 14:18:35;;;;;;;6.90;1.80;;;;;;;;;;5106044;27;20081;-56
2022/11/23 14:21:10;;;;;;;9.45;2.22;;;;;;;;;;5082199;28;20347;-56
2022/11/23 14:24:05;;;;;;;13.57;2.60;;;;;;;;;;5109348;27;20438;-56
2022/11/23 14:26:49;;;;;;;6.45;1.85;;;;;;;;;;5072933;28;20098;-56
2022/11/23 14:29:17;;;;;;;8.40;2.28;;;;;;;;;;5078999;28;20226;-56
2022/11/23 14:31:52;;;;;;;9.88;2.20;;;;;;;;;;5083653;28;20019;-56
2022/11/23 14:34:35;;;;;;;14.02;1.80;;;;;;;;;;5072485;28;20019;-57